Time;durP1;ratioP1;P1;durP2;ratioP2;P2;SDS_P1;SDS_P2;PMS_P1;PMS_P2;Temp;Humidity;BMP_temperature;BMP_pressure;BME280_temperature;BME280_humidity;BME280_pressure;Samples;Min_cycle;Max_cycle;Signal;HPM_P1;HPM_P2
2020/06/22 00:00:38;;;;;;;5.900001;5.45;;;;;;;13.48;100;95808.47;;;;
2020/06/22 00:01:39;;;;;;;5.900001;5.45;;;;;;;13.48;100;95808.47;;;;
2020/06/22 00:02:39;;;;;;;5.900001;5.45;;;;;;;13.48;100;95808.47;;;;
2020/06/22 00:03:40;;;;;;;5.900001;5.45;;;;;;;13.48;100;95808.47;;;;
2020/06/22 00:04:40;;;;;;;5.900001;5.45;;;;;;;13.48;100;95808.47;;;;
2020/06/22 00:05:41;;;;;;;5.900001;5.45;;;;;;;13.48;100;95808.47;;;;
2020/06/22 00:06:41;;;;;;;5.900001;5.45;;;;;;;13.48;100;95808.47;;;;
2020/06/22 00:07:42;;;;;;;0;0;;;;;;;0;0;0;;;;
2020/06/22 00:08:42;;;;;;;0;0;;;;;;;0;0;0;;;;
2020/06/22 00:09:42;;;;;;;0;0;;;;;;;0;0;0;;;;
2020/06/22 00:10:43;;;;;;;0;0;;;;;;;0;0;0;;;;
2020/06/22 00:11:43;;;;;;;0;0;;;;;;;0;0;0;;;;
2020/06/22 00:12:44;;;;;;;0;0;;;;;;;0;0;0;;;;
2020/06/22 00:13:44;;;;;;;0;0;;;;;;;0;0;0;;;;
2020/06/22 00:14:45;;;;;;;0;0;;;;;;;0;0;0;;;;
2020/06/22 00:15:46;;;;;;;0;0;;;;;;;0;0;0;;;;
2020/06/22 00:16:47;;;;;;;0;0;;;;;;;0;0;0;;;;
2020/06/22 00:17:47;;;;;;;0;0;;;;;;;0;0;0;;;;
2020/06/22 00:18:47;;;;;;;0;0;;;;;;;0;0;0;;;;
2020/06/22 00:19:48;;;;;;;0;0;;;;;;;0;0;0;;;;
2020/06/22 00:20:48;;;;;;;0;0;;;;;;;0;0;0;;;;
2020/06/22 00:21:49;;;;;;;0;0;;;;;;;0;0;0;;;;
2020/06/22 00:22:49;;;;;;;0;0;;;;;;;0;0;0;;;;
2020/06/22 00:23:50;;;;;;;0;0;;;;;;;0;0;0;;;;
2020/06/22 00:24:50;;;;;;;0;0;;;;;;;0;0;0;;;;
2020/06/22 00:25:51;;;;;;;0;0;;;;;;;0;0;0;;;;
2020/06/22 00:26:51;;;;;;;0;0;;;;;;;0;0;0;;;;
2020/06/22 00:27:52;;;;;;;0;0;;;;;;;0;0;0;;;;
2020/06/22 00:28:52;;;;;;;0;0;;;;;;;0;0;0;;;;
2020/06/22 00:29:53;;;;;;;0;0;;;;;;;0;0;0;;;;
2020/06/22 00:30:53;;;;;;;0;0;;;;;;;0;0;0;;;;
2020/06/22 00:31:54;;;;;;;0;0;;;;;;;0;0;0;;;;
2020/06/22 00:32:54;;;;;;;0;0;;;;;;;0;0;0;;;;
2020/06/22 00:33:54;;;;;;;0;0;;;;;;;0;0;0;;;;
2020/06/22 00:34:55;;;;;;;0;0;;;;;;;0;0;0;;;;
2020/06/22 00:35:55;;;;;;;0;0;;;;;;;0;0;0;;;;
2020/06/22 00:36:56;;;;;;;0;0;;;;;;;0;0;0;;;;
2020/06/22 00:37:56;;;;;;;0;0;;;;;;;0;0;0;;;;
2020/06/22 00:38:57;;;;;;;0;0;;;;;;;0;0;0;;;;
2020/06/22 00:39:57;;;;;;;0;0;;;;;;;0;0;0;;;;
2020/06/22 00:40:58;;;;;;;0;0;;;;;;;0;0;0;;;;
2020/06/22 00:41:58;;;;;;;0;0;;;;;;;0;0;0;;;;
2020/06/22 00:42:59;;;;;;;0;0;;;;;;;0;0;0;;;;
2020/06/22 00:44:00;;;;;;;0;0;;;;;;;0;0;0;;;;
2020/06/22 00:45:00;;;;;;;0;0;;;;;;;0;0;0;;;;
2020/06/22 00:46:01;;;;;;;0;0;;;;;;;0;0;0;;;;
2020/06/22 00:47:02;;;;;;;0;0;;;;;;;0;0;0;;;;
2020/06/22 00:48:02;;;;;;;0;0;;;;;;;0;0;0;;;;
2020/06/22 00:49:03;;;;;;;0;0;;;;;;;0;0;0;;;;
2020/06/22 00:50:04;;;;;;;0;0;;;;;;;0;0;0;;;;
2020/06/22 00:51:05;;;;;;;0;0;;;;;;;0;0;0;;;;
2020/06/22 00:52:05;;;;;;;0;0;;;;;;;0;0;0;;;;
2020/06/22 00:53:06;;;;;;;0;0;;;;;;;0;0;0;;;;
2020/06/22 00:54:06;;;;;;;0;0;;;;;;;0;0;0;;;;
2020/06/22 00:55:07;;;;;;;0;0;;;;;;;0;0;0;;;;
2020/06/22 00:56:07;;;;;;;0;0;;;;;;;0;0;0;;;;
2020/06/22 00:57:11;;;;;;;0;0;;;;;;;0;0;0;;;;
2020/06/22 00:58:19;;;;;;;0;0;;;;;;;0;0;0;;;;
2020/06/22 00:59:28;;;;;;;0;0;;;;;;;0;0;0;;;;
2020/06/22 01:00:35;;;;;;;0;0;;;;;;;0;0;0;;;;
2020/06/22 01:01:36;;;;;;;0;0;;;;;;;0;0;0;;;;
2020/06/22 01:02:40;;;;;;;0;0;;;;;;;0;0;0;;;;
2020/06/22 01:03:45;;;;;;;0;0;;;;;;;0;0;0;;;;
2020/06/22 01:04:46;;;;;;;0;0;;;;;;;0;0;0;;;;
2020/06/22 01:05:52;;;;;;;0;0;;;;;;;0;0;0;;;;
2020/06/22 01:06:56;;;;;;;0;0;;;;;;;0;0;0;;;;
2020/06/22 01:07:58;;;;;;;0;0;;;;;;;0;0;0;;;;
2020/06/22 01:09:02;;;;;;;0;0;;;;;;;0;0;0;;;;
2020/06/22 01:10:03;;;;;;;0;0;;;;;;;0;0;0;;;;
2020/06/22 01:11:04;;;;;;;0;0;;;;;;;0;0;0;;;;
2020/06/22 01:12:04;;;;;;;0;0;;;;;;;0;0;0;;;;
2020/06/22 01:13:06;;;;;;;0;0;;;;;;;0;0;0;;;;
2020/06/22 01:14:07;;;;;;;0;0;;;;;;;0;0;0;;;;
2020/06/22 01:15:07;;;;;;;0;0;;;;;;;0;0;0;;;;
2020/06/22 01:16:08;;;;;;;0;0;;;;;;;0;0;0;;;;
2020/06/22 01:17:08;;;;;;;0;0;;;;;;;0;0;0;;;;
2020/06/22 01:18:09;;;;;;;0;0;;;;;;;0;0;0;;;;
2020/06/22 01:19:10;;;;;;;0;0;;;;;;;0;0;0;;;;
2020/06/22 01:20:10;;;;;;;0;0;;;;;;;0;0;0;;;;
2020/06/22 01:21:11;;;;;;;0;0;;;;;;;0;0;0;;;;
2020/06/22 01:22:14;;;;;;;0;0;;;;;;;0;0;0;;;;
2020/06/22 01:23:15;;;;;;;0;0;;;;;;;0;0;0;;;;
2020/06/22 01:24:17;;;;;;;0;0;;;;;;;0;0;0;;;;
2020/06/22 01:25:18;;;;;;;0;0;;;;;;;0;0;0;;;;
2020/06/22 01:26:18;;;;;;;0;0;;;;;;;0;0;0;;;;
2020/06/22 01:27:20;;;;;;;0;0;;;;;;;0;0;0;;;;
2020/06/22 01:28:22;;;;;;;0;0;;;;;;;0;0;0;;;;
2020/06/22 01:29:24;;;;;;;0;0;;;;;;;0;0;0;;;;
2020/06/22 01:30:26;;;;;;;0;0;;;;;;;0;0;0;;;;
2020/06/22 01:31:27;;;;;;;0;0;;;;;;;0;0;0;;;;
2020/06/22 01:32:30;;;;;;;0;0;;;;;;;0;0;0;;;;
2020/06/22 01:33:31;;;;;;;0;0;;;;;;;0;0;0;;;;
2020/06/22 01:34:33;;;;;;;0;0;;;;;;;0;0;0;;;;
2020/06/22 01:35:34;;;;;;;0;0;;;;;;;0;0;0;;;;
2020/06/22 01:36:37;;;;;;;0;0;;;;;;;0;0;0;;;;
2020/06/22 01:37:38;;;;;;;0;0;;;;;;;0;0;0;;;;
2020/06/22 01:38:41;;;;;;;0;0;;;;;;;0;0;0;;;;
2020/06/22 01:39:42;;;;;;;0;0;;;;;;;0;0;0;;;;
2020/06/22 01:40:44;;;;;;;0;0;;;;;;;0;0;0;;;;
2020/06/22 01:41:48;;;;;;;0;0;;;;;;;0;0;0;;;;
2020/06/22 01:42:53;;;;;;;0;0;;;;;;;0;0;0;;;;
2020/06/22 01:44:01;;;;;;;0;0;;;;;;;0;0;0;;;;
2020/06/22 01:45:04;;;;;;;0;0;;;;;;;0;0;0;;;;
2020/06/22 01:46:08;;;;;;;0;0;;;;;;;0;0;0;;;;
2020/06/22 01:47:13;;;;;;;0;0;;;;;;;0;0;0;;;;
2020/06/22 01:48:18;;;;;;;0;0;;;;;;;0;0;0;;;;
2020/06/22 01:49:34;;;;;;;0;0;;;;;;;0;0;0;;;;
2020/06/22 01:50:40;;;;;;;0;0;;;;;;;0;0;0;;;;
2020/06/22 01:51:48;;;;;;;0;0;;;;;;;0;0;0;;;;
2020/06/22 01:52:54;;;;;;;0;0;;;;;;;0;0;0;;;;
2020/06/22 01:54:04;;;;;;;0;0;;;;;;;0;0;0;;;;
2020/06/22 01:55:06;;;;;;;0;0;;;;;;;0;0;0;;;;
2020/06/22 01:56:09;;;;;;;0;0;;;;;;;0;0;0;;;;
2020/06/22 01:57:12;;;;;;;0;0;;;;;;;0;0;0;;;;
2020/06/22 01:58:20;;;;;;;0;0;;;;;;;0;0;0;;;;
2020/06/22 01:59:24;;;;;;;0;0;;;;;;;0;0;0;;;;
2020/06/22 02:00:30;;;;;;;0;0;;;;;;;0;0;0;;;;
2020/06/22 02:01:31;;;;;;;0;0;;;;;;;0;0;0;;;;
2020/06/22 02:02:33;;;;;;;0;0;;;;;;;0;0;0;;;;
2020/06/22 02:03:33;;;;;;;0;0;;;;;;;0;0;0;;;;
2020/06/22 02:04:34;;;;;;;0;0;;;;;;;0;0;0;;;;
2020/06/22 02:05:34;;;;;;;0;0;;;;;;;0;0;0;;;;
2020/06/22 02:06:35;;;;;;;0;0;;;;;;;0;0;0;;;;
2020/06/22 02:07:35;;;;;;;0;0;;;;;;;0;0;0;;;;
2020/06/22 02:08:36;;;;;;;0;0;;;;;;;0;0;0;;;;
2020/06/22 02:09:36;;;;;;;0;0;;;;;;;0;0;0;;;;
2020/06/22 02:10:37;;;;;;;0;0;;;;;;;0;0;0;;;;
2020/06/22 02:11:38;;;;;;;0;0;;;;;;;0;0;0;;;;
2020/06/22 02:12:39;;;;;;;0;0;;;;;;;0;0;0;;;;
2020/06/22 02:13:39;;;;;;;0;0;;;;;;;0;0;0;;;;
2020/06/22 02:14:39;;;;;;;0;0;;;;;;;0;0;0;;;;
2020/06/22 02:15:40;;;;;;;0;0;;;;;;;0;0;0;;;;
2020/06/22 02:16:40;;;;;;;0;0;;;;;;;0;0;0;;;;
2020/06/22 02:17:41;;;;;;;0;0;;;;;;;0;0;0;;;;
2020/06/22 02:18:41;;;;;;;0;0;;;;;;;0;0;0;;;;
2020/06/22 02:19:42;;;;;;;0;0;;;;;;;0;0;0;;;;
2020/06/22 02:20:43;;;;;;;0;0;;;;;;;0;0;0;;;;
2020/06/22 02:21:43;;;;;;;0;0;;;;;;;0;0;0;;;;
2020/06/22 02:22:44;;;;;;;0;0;;;;;;;0;0;0;;;;
2020/06/22 02:23:44;;;;;;;0;0;;;;;;;0;0;0;;;;
2020/06/22 02:24:45;;;;;;;0;0;;;;;;;0;0;0;;;;
2020/06/22 02:25:45;;;;;;;0;0;;;;;;;0;0;0;;;;
2020/06/22 02:26:46;;;;;;;0;0;;;;;;;0;0;0;;;;
2020/06/22 02:27:46;;;;;;;0;0;;;;;;;0;0;0;;;;
2020/06/22 02:28:47;;;;;;;0;0;;;;;;;0;0;0;;;;
2020/06/22 02:29:47;;;;;;;0;0;;;;;;;0;0;0;;;;
2020/06/22 02:30:47;;;;;;;0;0;;;;;;;0;0;0;;;;
2020/06/22 02:31:48;;;;;;;0;0;;;;;;;0;0;0;;;;
2020/06/22 02:32:48;;;;;;;0;0;;;;;;;0;0;0;;;;
2020/06/22 02:33:49;;;;;;;0;0;;;;;;;0;0;0;;;;
2020/06/22 02:34:49;;;;;;;0;0;;;;;;;0;0;0;;;;
2020/06/22 02:35:50;;;;;;;0;0;;;;;;;0;0;0;;;;
2020/06/22 02:36:50;;;;;;;0;0;;;;;;;0;0;0;;;;
2020/06/22 02:37:51;;;;;;;0;0;;;;;;;0;0;0;;;;
2020/06/22 02:38:51;;;;;;;0;0;;;;;;;0;0;0;;;;
2020/06/22 02:39:51;;;;;;;0;0;;;;;;;0;0;0;;;;
2020/06/22 02:40:52;;;;;;;0;0;;;;;;;0;0;0;;;;
2020/06/22 02:41:52;;;;;;;0;0;;;;;;;0;0;0;;;;
2020/06/22 02:42:53;;;;;;;0;0;;;;;;;0;0;0;;;;
2020/06/22 02:43:53;;;;;;;0;0;;;;;;;0;0;0;;;;
2020/06/22 02:44:54;;;;;;;0;0;;;;;;;0;0;0;;;;
2020/06/22 02:45:54;;;;;;;0;0;;;;;;;0;0;0;;;;
2020/06/22 02:46:55;;;;;;;0;0;;;;;;;0;0;0;;;;
2020/06/22 02:47:55;;;;;;;0;0;;;;;;;0;0;0;;;;
2020/06/22 02:48:56;;;;;;;0;0;;;;;;;0;0;0;;;;
2020/06/22 02:49:56;;;;;;;0;0;;;;;;;0;0;0;;;;
2020/06/22 02:50:57;;;;;;;0;0;;;;;;;0;0;0;;;;
2020/06/22 02:51:57;;;;;;;0;0;;;;;;;0;0;0;;;;
2020/06/22 02:52:58;;;;;;;0;0;;;;;;;0;0;0;;;;
2020/06/22 02:53:58;;;;;;;0;0;;;;;;;0;0;0;;;;
2020/06/22 02:54:58;;;;;;;0;0;;;;;;;0;0;0;;;;
2020/06/22 02:55:59;;;;;;;0;0;;;;;;;0;0;0;;;;
2020/06/22 02:56:59;;;;;;;0;0;;;;;;;0;0;0;;;;
2020/06/22 02:58:00;;;;;;;0;0;;;;;;;0;0;0;;;;
2020/06/22 02:59:00;;;;;;;0;0;;;;;;;0;0;0;;;;
2020/06/22 03:00:01;;;;;;;0;0;;;;;;;0;0;0;;;;
2020/06/22 03:01:03;;;;;;;0;0;;;;;;;0;0;0;;;;
2020/06/22 03:02:04;;;;;;;0;0;;;;;;;0;0;0;;;;
2020/06/22 03:03:04;;;;;;;0;0;;;;;;;0;0;0;;;;
2020/06/22 03:04:05;;;;;;;0;0;;;;;;;0;0;0;;;;
2020/06/22 03:05:05;;;;;;;0;0;;;;;;;0;0;0;;;;
2020/06/22 03:06:06;;;;;;;0;0;;;;;;;0;0;0;;;;
2020/06/22 03:07:06;;;;;;;0;0;;;;;;;0;0;0;;;;
2020/06/22 03:08:07;;;;;;;0;0;;;;;;;0;0;0;;;;
2020/06/22 03:09:07;;;;;;;0;0;;;;;;;0;0;0;;;;
2020/06/22 03:10:08;;;;;;;0;0;;;;;;;0;0;0;;;;
2020/06/22 03:11:08;;;;;;;0;0;;;;;;;0;0;0;;;;
2020/06/22 03:12:09;;;;;;;0;0;;;;;;;0;0;0;;;;
2020/06/22 03:13:09;;;;;;;0;0;;;;;;;0;0;0;;;;
2020/06/22 03:14:10;;;;;;;0;0;;;;;;;0;0;0;;;;
2020/06/22 03:15:10;;;;;;;0;0;;;;;;;0;0;0;;;;
2020/06/22 03:16:11;;;;;;;0;0;;;;;;;0;0;0;;;;
2020/06/22 03:17:11;;;;;;;0;0;;;;;;;0;0;0;;;;
2020/06/22 03:18:12;;;;;;;0;0;;;;;;;0;0;0;;;;
2020/06/22 03:19:12;;;;;;;0;0;;;;;;;0;0;0;;;;
2020/06/22 03:20:12;;;;;;;0;0;;;;;;;0;0;0;;;;
2020/06/22 03:21:13;;;;;;;0;0;;;;;;;0;0;0;;;;
2020/06/22 03:22:14;;;;;;;0;0;;;;;;;0;0;0;;;;
2020/06/22 03:23:14;;;;;;;0;0;;;;;;;0;0;0;;;;
2020/06/22 03:24:14;;;;;;;0;0;;;;;;;0;0;0;;;;
2020/06/22 03:25:15;;;;;;;0;0;;;;;;;0;0;0;;;;
2020/06/22 03:26:15;;;;;;;0;0;;;;;;;0;0;0;;;;
2020/06/22 03:27:16;;;;;;;0;0;;;;;;;0;0;0;;;;
2020/06/22 03:28:16;;;;;;;0;0;;;;;;;0;0;0;;;;
2020/06/22 03:29:17;;;;;;;0;0;;;;;;;0;0;0;;;;
2020/06/22 03:30:17;;;;;;;0;0;;;;;;;0;0;0;;;;
2020/06/22 03:31:18;;;;;;;0;0;;;;;;;0;0;0;;;;
2020/06/22 03:32:18;;;;;;;0;0;;;;;;;0;0;0;;;;
2020/06/22 03:33:19;;;;;;;0;0;;;;;;;0;0;0;;;;
2020/06/22 03:34:19;;;;;;;0;0;;;;;;;0;0;0;;;;
2020/06/22 03:35:19;;;;;;;0;0;;;;;;;0;0;0;;;;
2020/06/22 03:36:20;;;;;;;0;0;;;;;;;0;0;0;;;;
2020/06/22 03:37:20;;;;;;;0;0;;;;;;;0;0;0;;;;
2020/06/22 03:38:21;;;;;;;0;0;;;;;;;0;0;0;;;;
2020/06/22 03:39:21;;;;;;;0;0;;;;;;;0;0;0;;;;
2020/06/22 03:40:22;;;;;;;0;0;;;;;;;0;0;0;;;;
2020/06/22 03:41:22;;;;;;;0;0;;;;;;;0;0;0;;;;
2020/06/22 03:42:23;;;;;;;0;0;;;;;;;0;0;0;;;;
2020/06/22 03:43:23;;;;;;;0;0;;;;;;;0;0;0;;;;
2020/06/22 03:44:24;;;;;;;0;0;;;;;;;0;0;0;;;;
2020/06/22 03:45:26;;;;;;;0;0;;;;;;;0;0;0;;;;
2020/06/22 03:46:26;;;;;;;0;0;;;;;;;0;0;0;;;;
2020/06/22 03:47:27;;;;;;;0;0;;;;;;;0;0;0;;;;
2020/06/22 03:48:28;;;;;;;0;0;;;;;;;0;0;0;;;;
2020/06/22 03:49:29;;;;;;;0;0;;;;;;;0;0;0;;;;
2020/06/22 03:50:29;;;;;;;0;0;;;;;;;0;0;0;;;;
2020/06/22 03:51:30;;;;;;;0;0;;;;;;;0;0;0;;;;
2020/06/22 03:52:33;;;;;;;0;0;;;;;;;0;0;0;;;;
2020/06/22 03:53:43;;;;;;;0;0;;;;;;;0;0;0;;;;
2020/06/22 03:54:51;;;;;;;0;0;;;;;;;0;0;0;;;;
2020/06/22 03:55:56;;;;;;;0;0;;;;;;;0;0;0;;;;
2020/06/22 03:56:56;;;;;;;0;0;;;;;;;0;0;0;;;;
2020/06/22 03:57:57;;;;;;;0;0;;;;;;;0;0;0;;;;
2020/06/22 03:58:57;;;;;;;0;0;;;;;;;0;0;0;;;;
2020/06/22 03:59:58;;;;;;;0;0;;;;;;;0;0;0;;;;
2020/06/22 04:00:58;;;;;;;0;0;;;;;;;0;0;0;;;;
2020/06/22 04:01:59;;;;;;;0;0;;;;;;;0;0;0;;;;
2020/06/22 04:03:00;;;;;;;0;0;;;;;;;0;0;0;;;;
2020/06/22 04:04:00;;;;;;;0;0;;;;;;;0;0;0;;;;
2020/06/22 04:05:01;;;;;;;0;0;;;;;;;0;0;0;;;;
2020/06/22 04:06:02;;;;;;;0;0;;;;;;;0;0;0;;;;
2020/06/22 04:07:03;;;;;;;0;0;;;;;;;0;0;0;;;;
2020/06/22 04:08:04;;;;;;;0;0;;;;;;;0;0;0;;;;
2020/06/22 04:09:04;;;;;;;0;0;;;;;;;0;0;0;;;;
2020/06/22 04:10:05;;;;;;;0;0;;;;;;;0;0;0;;;;
2020/06/22 04:11:06;;;;;;;0;0;;;;;;;0;0;0;;;;
2020/06/22 04:12:07;;;;;;;0;0;;;;;;;0;0;0;;;;
2020/06/22 04:13:08;;;;;;;0;0;;;;;;;0;0;0;;;;
2020/06/22 04:14:08;;;;;;;0;0;;;;;;;0;0;0;;;;
2020/06/22 04:15:09;;;;;;;0;0;;;;;;;0;0;0;;;;
2020/06/22 04:16:10;;;;;;;0;0;;;;;;;0;0;0;;;;
2020/06/22 04:17:10;;;;;;;0;0;;;;;;;0;0;0;;;;
2020/06/22 04:18:10;;;;;;;0;0;;;;;;;0;0;0;;;;
2020/06/22 04:19:11;;;;;;;0;0;;;;;;;0;0;0;;;;
2020/06/22 04:20:11;;;;;;;0;0;;;;;;;0;0;0;;;;
2020/06/22 04:21:12;;;;;;;0;0;;;;;;;0;0;0;;;;
2020/06/22 04:22:12;;;;;;;0;0;;;;;;;0;0;0;;;;
2020/06/22 04:23:13;;;;;;;0;0;;;;;;;0;0;0;;;;
2020/06/22 04:24:13;;;;;;;0;0;;;;;;;0;0;0;;;;
2020/06/22 04:25:14;;;;;;;0;0;;;;;;;0;0;0;;;;
2020/06/22 04:26:14;;;;;;;0;0;;;;;;;0;0;0;;;;
2020/06/22 04:27:15;;;;;;;0;0;;;;;;;0;0;0;;;;
2020/06/22 04:28:16;;;;;;;0;0;;;;;;;0;0;0;;;;
2020/06/22 04:29:17;;;;;;;0;0;;;;;;;0;0;0;;;;
2020/06/22 04:30:17;;;;;;;0;0;;;;;;;0;0;0;;;;
2020/06/22 04:31:17;;;;;;;0;0;;;;;;;0;0;0;;;;
2020/06/22 04:32:18;;;;;;;0;0;;;;;;;0;0;0;;;;
2020/06/22 04:33:18;;;;;;;0;0;;;;;;;0;0;0;;;;
2020/06/22 04:34:19;;;;;;;0;0;;;;;;;0;0;0;;;;
2020/06/22 04:35:19;;;;;;;0;0;;;;;;;0;0;0;;;;
2020/06/22 04:36:20;;;;;;;0;0;;;;;;;0;0;0;;;;
2020/06/22 04:37:20;;;;;;;0;0;;;;;;;0;0;0;;;;
2020/06/22 04:38:21;;;;;;;0;0;;;;;;;0;0;0;;;;
2020/06/22 04:39:21;;;;;;;0;0;;;;;;;0;0;0;;;;
2020/06/22 04:40:22;;;;;;;0;0;;;;;;;0;0;0;;;;
2020/06/22 04:41:22;;;;;;;0;0;;;;;;;0;0;0;;;;
2020/06/22 04:42:23;;;;;;;0;0;;;;;;;0;0;0;;;;
2020/06/22 04:43:23;;;;;;;0;0;;;;;;;0;0;0;;;;
2020/06/22 04:44:24;;;;;;;0;0;;;;;;;0;0;0;;;;
2020/06/22 04:45:24;;;;;;;0;0;;;;;;;0;0;0;;;;
2020/06/22 04:46:25;;;;;;;0;0;;;;;;;0;0;0;;;;
2020/06/22 04:47:25;;;;;;;0;0;;;;;;;0;0;0;;;;
2020/06/22 04:48:26;;;;;;;0;0;;;;;;;0;0;0;;;;
2020/06/22 04:49:26;;;;;;;0;0;;;;;;;0;0;0;;;;
2020/06/22 04:50:27;;;;;;;0;0;;;;;;;0;0;0;;;;
2020/06/22 04:51:27;;;;;;;0;0;;;;;;;0;0;0;;;;
2020/06/22 04:52:28;;;;;;;0;0;;;;;;;0;0;0;;;;
2020/06/22 04:53:28;;;;;;;0;0;;;;;;;0;0;0;;;;
2020/06/22 04:54:29;;;;;;;0;0;;;;;;;0;0;0;;;;
2020/06/22 04:55:29;;;;;;;0;0;;;;;;;0;0;0;;;;
2020/06/22 04:56:30;;;;;;;0;0;;;;;;;0;0;0;;;;
2020/06/22 04:57:30;;;;;;;0;0;;;;;;;0;0;0;;;;
2020/06/22 04:58:31;;;;;;;0;0;;;;;;;0;0;0;;;;
2020/06/22 04:59:31;;;;;;;0;0;;;;;;;0;0;0;;;;
2020/06/22 05:00:32;;;;;;;0;0;;;;;;;0;0;0;;;;
2020/06/22 05:01:32;;;;;;;0;0;;;;;;;0;0;0;;;;
2020/06/22 05:02:32;;;;;;;0;0;;;;;;;0;0;0;;;;
2020/06/22 05:03:33;;;;;;;0;0;;;;;;;0;0;0;;;;
2020/06/22 05:04:34;;;;;;;0;0;;;;;;;0;0;0;;;;
2020/06/22 05:05:34;;;;;;;0;0;;;;;;;0;0;0;;;;
2020/06/22 05:06:35;;;;;;;0;0;;;;;;;0;0;0;;;;
2020/06/22 05:07:35;;;;;;;0;0;;;;;;;0;0;0;;;;
2020/06/22 05:08:36;;;;;;;0;0;;;;;;;0;0;0;;;;
2020/06/22 05:09:36;;;;;;;0;0;;;;;;;0;0;0;;;;
2020/06/22 05:10:36;;;;;;;0;0;;;;;;;0;0;0;;;;
2020/06/22 05:11:37;;;;;;;0;0;;;;;;;0;0;0;;;;
2020/06/22 05:12:37;;;;;;;0;0;;;;;;;0;0;0;;;;
2020/06/22 05:13:38;;;;;;;0;0;;;;;;;0;0;0;;;;
2020/06/22 05:14:38;;;;;;;0;0;;;;;;;0;0;0;;;;
2020/06/22 05:15:39;;;;;;;0;0;;;;;;;0;0;0;;;;
2020/06/22 05:16:39;;;;;;;0;0;;;;;;;0;0;0;;;;
2020/06/22 05:17:40;;;;;;;0;0;;;;;;;0;0;0;;;;
2020/06/22 05:18:40;;;;;;;0;0;;;;;;;0;0;0;;;;
2020/06/22 05:19:41;;;;;;;0;0;;;;;;;0;0;0;;;;
2020/06/22 05:20:41;;;;;;;0;0;;;;;;;0;0;0;;;;
2020/06/22 05:21:42;;;;;;;0;0;;;;;;;0;0;0;;;;
2020/06/22 05:22:42;;;;;;;0;0;;;;;;;0;0;0;;;;
2020/06/22 05:23:43;;;;;;;0;0;;;;;;;0;0;0;;;;
2020/06/22 05:24:43;;;;;;;0;0;;;;;;;0;0;0;;;;
2020/06/22 05:25:44;;;;;;;0;0;;;;;;;0;0;0;;;;
2020/06/22 05:26:44;;;;;;;0;0;;;;;;;0;0;0;;;;
2020/06/22 05:27:44;;;;;;;0;0;;;;;;;0;0;0;;;;
2020/06/22 05:28:45;;;;;;;0;0;;;;;;;0;0;0;;;;
2020/06/22 05:29:45;;;;;;;0;0;;;;;;;0;0;0;;;;
2020/06/22 05:30:46;;;;;;;0;0;;;;;;;0;0;0;;;;
2020/06/22 05:31:47;;;;;;;0;0;;;;;;;0;0;0;;;;
2020/06/22 05:32:47;;;;;;;0;0;;;;;;;0;0;0;;;;
2020/06/22 05:33:47;;;;;;;0;0;;;;;;;0;0;0;;;;
2020/06/22 05:34:48;;;;;;;0;0;;;;;;;0;0;0;;;;
2020/06/22 05:35:48;;;;;;;0;0;;;;;;;0;0;0;;;;
2020/06/22 05:36:49;;;;;;;0;0;;;;;;;0;0;0;;;;
2020/06/22 05:37:50;;;;;;;0;0;;;;;;;0;0;0;;;;
2020/06/22 05:38:50;;;;;;;0;0;;;;;;;0;0;0;;;;
2020/06/22 05:39:51;;;;;;;0;0;;;;;;;0;0;0;;;;
2020/06/22 05:40:51;;;;;;;0;0;;;;;;;0;0;0;;;;
2020/06/22 05:41:52;;;;;;;0;0;;;;;;;0;0;0;;;;
2020/06/22 05:42:52;;;;;;;0;0;;;;;;;0;0;0;;;;
2020/06/22 05:43:52;;;;;;;0;0;;;;;;;0;0;0;;;;
2020/06/22 05:44:53;;;;;;;0;0;;;;;;;0;0;0;;;;
2020/06/22 05:45:53;;;;;;;0;0;;;;;;;0;0;0;;;;
2020/06/22 05:46:54;;;;;;;0;0;;;;;;;0;0;0;;;;
2020/06/22 05:47:54;;;;;;;0;0;;;;;;;0;0;0;;;;
2020/06/22 05:48:55;;;;;;;0;0;;;;;;;0;0;0;;;;
2020/06/22 05:49:55;;;;;;;0;0;;;;;;;0;0;0;;;;
2020/06/22 05:50:56;;;;;;;0;0;;;;;;;0;0;0;;;;
2020/06/22 05:51:56;;;;;;;0;0;;;;;;;0;0;0;;;;
2020/06/22 05:52:57;;;;;;;0;0;;;;;;;0;0;0;;;;
2020/06/22 05:53:57;;;;;;;0;0;;;;;;;0;0;0;;;;
2020/06/22 05:54:58;;;;;;;0;0;;;;;;;0;0;0;;;;
2020/06/22 05:55:58;;;;;;;0;0;;;;;;;0;0;0;;;;
2020/06/22 05:56:59;;;;;;;0;0;;;;;;;0;0;0;;;;
2020/06/22 05:57:59;;;;;;;0;0;;;;;;;0;0;0;;;;
2020/06/22 05:58:59;;;;;;;0;0;;;;;;;0;0;0;;;;
2020/06/22 06:00:00;;;;;;;0;0;;;;;;;0;0;0;;;;
2020/06/22 06:01:00;;;;;;;0;0;;;;;;;0;0;0;;;;
2020/06/22 06:02:01;;;;;;;0;0;;;;;;;0;0;0;;;;
2020/06/22 06:03:01;;;;;;;0;0;;;;;;;0;0;0;;;;
2020/06/22 06:04:02;;;;;;;0;0;;;;;;;0;0;0;;;;
2020/06/22 06:05:02;;;;;;;0;0;;;;;;;0;0;0;;;;
2020/06/22 06:06:03;;;;;;;0;0;;;;;;;0;0;0;;;;
2020/06/22 06:07:04;;;;;;;3.5;3.2;;;;;;;19.13;100;95903.3;;;;
2020/06/22 06:08:04;;;;;;;3.5;3.2;;;;;;;19.13;100;95903.3;;;;
2020/06/22 06:09:05;;;;;;;3.5;3.2;;;;;;;19.13;100;95903.3;;;;
2020/06/22 06:10:05;;;;;;;3.5;3.2;;;;;;;19.13;100;95903.3;;;;
2020/06/22 06:11:06;;;;;;;3.5;3.2;;;;;;;19.13;100;95903.3;;;;
2020/06/22 06:12:06;;;;;;;3.5;3.2;;;;;;;19.13;100;95903.3;;;;
2020/06/22 06:13:07;;;;;;;3.5;3.2;;;;;;;19.13;100;95903.3;;;;
2020/06/22 06:14:07;;;;;;;3.5;3.2;;;;;;;19.13;100;95903.3;;;;
2020/06/22 06:15:08;;;;;;;3.5;3.2;;;;;;;19.13;100;95903.3;;;;
2020/06/22 06:16:08;;;;;;;3.5;3.2;;;;;;;19.13;100;95903.3;;;;
2020/06/22 06:17:09;;;;;;;3.65;3.35;;;;;;;19.62;100;95911.36;;;;
2020/06/22 06:18:09;;;;;;;3.65;3.35;;;;;;;19.62;100;95911.36;;;;
2020/06/22 06:19:10;;;;;;;3.65;3.35;;;;;;;19.62;100;95911.36;;;;
2020/06/22 06:20:10;;;;;;;3.65;3.35;;;;;;;19.62;100;95911.36;;;;
2020/06/22 06:21:11;;;;;;;3.65;3.35;;;;;;;19.62;100;95911.36;;;;
2020/06/22 06:22:11;;;;;;;3.65;3.35;;;;;;;19.62;100;95911.36;;;;
2020/06/22 06:23:11;;;;;;;3.65;3.35;;;;;;;19.62;100;95911.36;;;;
2020/06/22 06:24:12;;;;;;;3.65;3.35;;;;;;;19.62;100;95911.36;;;;
2020/06/22 06:25:12;;;;;;;3.65;3.35;;;;;;;19.62;100;95911.36;;;;
2020/06/22 06:26:13;;;;;;;3.65;3.35;;;;;;;19.62;100;95911.36;;;;
2020/06/22 06:27:13;;;;;;;3.65;3.35;;;;;;;19.62;100;95911.36;;;;
2020/06/22 06:28:14;;;;;;;3.8;3.4;;;;;;;19.62;100;95916.85;;;;
2020/06/22 06:29:14;;;;;;;3.8;3.4;;;;;;;19.62;100;95916.85;;;;
2020/06/22 06:30:15;;;;;;;3.8;3.4;;;;;;;19.62;100;95916.85;;;;
2020/06/22 06:31:15;;;;;;;3.8;3.4;;;;;;;19.62;100;95916.85;;;;
2020/06/22 06:32:15;;;;;;;3.8;3.4;;;;;;;19.62;100;95916.85;;;;
2020/06/22 06:33:16;;;;;;;3.8;3.4;;;;;;;19.62;100;95916.85;;;;
2020/06/22 06:34:18;;;;;;;3.8;3.4;;;;;;;19.62;100;95916.85;;;;
2020/06/22 06:35:19;;;;;;;3.8;3.4;;;;;;;19.62;100;95916.85;;;;
2020/06/22 06:36:19;;;;;;;3.8;3.4;;;;;;;19.62;100;95916.85;;;;
2020/06/22 06:37:20;;;;;;;3.8;3.4;;;;;;;19.62;100;95916.85;;;;
2020/06/22 06:38:20;;;;;;;3.8;3.4;;;;;;;19.68;100;95920.24;;;;
2020/06/22 06:39:21;;;;;;;3.8;3.4;;;;;;;19.68;100;95920.24;;;;
2020/06/22 06:40:21;;;;;;;3.8;3.4;;;;;;;19.68;100;95920.24;;;;
2020/06/22 06:41:21;;;;;;;3.8;3.4;;;;;;;19.68;100;95920.24;;;;
2020/06/22 06:42:22;;;;;;;3.8;3.4;;;;;;;19.68;100;95920.24;;;;
2020/06/22 06:43:22;;;;;;;3.8;3.4;;;;;;;19.68;100;95920.24;;;;
2020/06/22 06:44:23;;;;;;;3.8;3.4;;;;;;;19.68;100;95920.24;;;;
2020/06/22 06:45:23;;;;;;;3.8;3.4;;;;;;;19.68;100;95920.24;;;;
2020/06/22 06:46:24;;;;;;;3.8;3.4;;;;;;;19.68;100;95920.24;;;;
2020/06/22 06:47:24;;;;;;;3.8;3.4;;;;;;;19.68;100;95920.24;;;;
2020/06/22 06:48:25;;;;;;;3.8;3.4;;;;;;;19.68;100;95920.24;;;;
2020/06/22 06:49:25;;;;;;;3.4;3.1;;;;;;;20.81;99.7959;95913.5;;;;
2020/06/22 06:50:26;;;;;;;3.4;3.1;;;;;;;20.81;99.7959;95913.5;;;;
2020/06/22 06:51:26;;;;;;;3.4;3.1;;;;;;;20.81;99.7959;95913.5;;;;
2020/06/22 06:52:27;;;;;;;3.4;3.1;;;;;;;20.81;99.7959;95913.5;;;;
2020/06/22 06:53:27;;;;;;;3.4;3.1;;;;;;;20.81;99.7959;95913.5;;;;
2020/06/22 06:54:27;;;;;;;3.4;3.1;;;;;;;20.81;99.7959;95913.5;;;;
2020/06/22 06:55:28;;;;;;;3.4;3.1;;;;;;;20.81;99.7959;95913.5;;;;
2020/06/22 06:56:28;;;;;;;3.4;3.1;;;;;;;20.81;99.7959;95913.5;;;;
2020/06/22 06:57:29;;;;;;;3.4;3.1;;;;;;;20.81;99.7959;95913.5;;;;
2020/06/22 06:58:29;;;;;;;3.4;3.1;;;;;;;20.81;99.7959;95913.5;;;;
2020/06/22 06:59:30;;;;;;;3.9;3.35;;;;;;;21.77;97.11035;95925.34;;;;
2020/06/22 07:00:30;;;;;;;3.9;3.35;;;;;;;21.77;97.11035;95925.34;;;;
2020/06/22 07:01:31;;;;;;;3.9;3.35;;;;;;;21.77;97.11035;95925.34;;;;
2020/06/22 07:02:31;;;;;;;3.9;3.35;;;;;;;21.77;97.11035;95925.34;;;;
2020/06/22 07:03:32;;;;;;;3.9;3.35;;;;;;;21.77;97.11035;95925.34;;;;
2020/06/22 07:04:32;;;;;;;3.9;3.35;;;;;;;21.77;97.11035;95925.34;;;;
2020/06/22 07:05:33;;;;;;;3.9;3.35;;;;;;;21.77;97.11035;95925.34;;;;
2020/06/22 07:06:33;;;;;;;3.9;3.35;;;;;;;21.77;97.11035;95925.34;;;;
2020/06/22 07:07:34;;;;;;;3.9;3.35;;;;;;;21.77;97.11035;95925.34;;;;
2020/06/22 07:08:34;;;;;;;3.9;3.35;;;;;;;21.77;97.11035;95925.34;;;;
2020/06/22 07:09:35;;;;;;;3.9;3.35;;;;;;;21.77;97.11035;95925.34;;;;
2020/06/22 07:10:35;;;;;;;4.3;3.2;;;;;;;21.26;97.41211;95931.05;;;;
2020/06/22 07:11:36;;;;;;;4.3;3.2;;;;;;;21.26;97.41211;95931.05;;;;
2020/06/22 07:12:36;;;;;;;4.3;3.2;;;;;;;21.26;97.41211;95931.05;;;;
2020/06/22 07:13:37;;;;;;;4.3;3.2;;;;;;;21.26;97.41211;95931.05;;;;
2020/06/22 07:14:37;;;;;;;4.3;3.2;;;;;;;21.26;97.41211;95931.05;;;;
2020/06/22 07:15:38;;;;;;;4.3;3.2;;;;;;;21.26;97.41211;95931.05;;;;
2020/06/22 07:16:38;;;;;;;4.3;3.2;;;;;;;21.26;97.41211;95931.05;;;;
2020/06/22 07:17:38;;;;;;;4.3;3.2;;;;;;;21.26;97.41211;95931.05;;;;
2020/06/22 07:18:39;;;;;;;4.3;3.2;;;;;;;21.26;97.41211;95931.05;;;;
2020/06/22 07:19:39;;;;;;;4.3;3.2;;;;;;;21.26;97.41211;95931.05;;;;
2020/06/22 07:20:40;;;;;;;3.55;3.15;;;;;;;20.55;98.27246;95944.8;;;;
2020/06/22 07:21:40;;;;;;;3.55;3.15;;;;;;;20.55;98.27246;95944.8;;;;
2020/06/22 07:22:41;;;;;;;3.55;3.15;;;;;;;20.55;98.27246;95944.8;;;;
2020/06/22 07:23:41;;;;;;;3.55;3.15;;;;;;;20.55;98.27246;95944.8;;;;
2020/06/22 07:24:42;;;;;;;3.55;3.15;;;;;;;20.55;98.27246;95944.8;;;;
2020/06/22 07:25:42;;;;;;;3.55;3.15;;;;;;;20.55;98.27246;95944.8;;;;
2020/06/22 07:26:42;;;;;;;3.55;3.15;;;;;;;20.55;98.27246;95944.8;;;;
2020/06/22 07:27:43;;;;;;;3.55;3.15;;;;;;;20.55;98.27246;95944.8;;;;
2020/06/22 07:28:43;;;;;;;3.55;3.15;;;;;;;20.55;98.27246;95944.8;;;;
2020/06/22 07:29:44;;;;;;;3.55;3.15;;;;;;;20.55;98.27246;95944.8;;;;
2020/06/22 07:30:44;;;;;;;3.55;3.15;;;;;;;20.55;98.27246;95944.8;;;;
2020/06/22 07:31:45;;;;;;;4.2;3.4;;;;;;;20.21;98.7168;95938.36;;;;
2020/06/22 07:32:46;;;;;;;4.2;3.4;;;;;;;20.21;98.7168;95938.36;;;;
2020/06/22 07:33:46;;;;;;;4.2;3.4;;;;;;;20.21;98.7168;95938.36;;;;
2020/06/22 07:34:47;;;;;;;4.2;3.4;;;;;;;20.21;98.7168;95938.36;;;;
2020/06/22 07:35:47;;;;;;;4.2;3.4;;;;;;;20.21;98.7168;95938.36;;;;
2020/06/22 07:39:57;;;;;;;4.2;3.4;;;;;;;20.21;98.7168;95938.36;;;;
2020/06/22 07:40:58;;;;;;;4.2;3.4;;;;;;;20.21;98.7168;95938.36;;;;
2020/06/22 07:41:58;;;;;;;4.4;3.4;;;;;;;20.24;98.48633;95947.39;;;;
2020/06/22 07:42:59;;;;;;;4.4;3.4;;;;;;;20.24;98.48633;95947.39;;;;
2020/06/22 07:43:59;;;;;;;4.4;3.4;;;;;;;20.24;98.48633;95947.39;;;;
2020/06/22 07:45:00;;;;;;;4.4;3.4;;;;;;;20.24;98.48633;95947.39;;;;
2020/06/22 07:46:00;;;;;;;4.4;3.4;;;;;;;20.24;98.48633;95947.39;;;;
2020/06/22 07:47:01;;;;;;;4.4;3.4;;;;;;;20.24;98.48633;95947.39;;;;
2020/06/22 07:48:01;;;;;;;4.4;3.4;;;;;;;20.24;98.48633;95947.39;;;;
2020/06/22 07:49:02;;;;;;;4.4;3.4;;;;;;;20.24;98.48633;95947.39;;;;
2020/06/22 07:50:02;;;;;;;4.4;3.4;;;;;;;20.24;98.48633;95947.39;;;;
2020/06/22 07:51:03;;;;;;;4.4;3.4;;;;;;;20.24;98.48633;95947.39;;;;
2020/06/22 07:52:04;;;;;;;4.4;3.4;;;;;;;20.24;98.48633;95947.39;;;;
2020/06/22 07:53:04;;;;;;;4.45;3.4;;;;;;;21.06;96.58594;95947.68;;;;
2020/06/22 07:54:05;;;;;;;4.45;3.4;;;;;;;21.06;96.58594;95947.68;;;;
2020/06/22 07:55:06;;;;;;;4.45;3.4;;;;;;;21.06;96.58594;95947.68;;;;
2020/06/22 07:56:06;;;;;;;4.45;3.4;;;;;;;21.06;96.58594;95947.68;;;;